createdAt,value
2023-02-19T00:01:49.221Z,10.21
2023-02-19T00:04:19.448Z,10.41
2023-02-19T00:06:47.928Z,10.36
2023-02-19T00:09:16.902Z,10.25
2023-02-19T00:11:46.142Z,10.26
2023-02-19T00:14:16.653Z,10.37
2023-02-19T00:16:44.245Z,10.52
2023-02-19T00:19:14.499Z,10.37
2023-02-19T00:21:43.598Z,10.32
2023-02-19T00:24:12.778Z,10.14
2023-02-19T00:26:41.677Z,10.04
2023-02-19T00:29:10.160Z,10.11
2023-02-19T00:31:37.765Z,10.43
2023-02-19T00:34:06.537Z,10.03
2023-02-19T00:36:35.929Z,10.12
2023-02-19T00:39:05.545Z,10.33
2023-02-19T00:41:33.119Z,10.54
2023-02-19T00:44:02.283Z,10.49
2023-02-19T00:46:31.942Z,10.59
2023-02-19T00:49:00.299Z,10.39
2023-02-19T00:51:30.065Z,10.60
2023-02-19T00:53:57.985Z,10.51
2023-02-19T00:56:27.109Z,10.39
2023-02-19T00:58:54.953Z,10.24
2023-02-19T01:01:22.727Z,10.12
2023-02-19T01:03:51.189Z,10.10
2023-02-19T01:06:20.501Z,10.35
2023-02-19T01:08:48.543Z,10.53
2023-02-19T01:11:16.641Z,10.44
2023-02-19T01:13:45.663Z,10.32
2023-02-19T01:16:15.885Z,10.36
2023-02-19T01:18:44.528Z,10.41
2023-02-19T01:21:15.127Z,10.46
2023-02-19T01:23:43.068Z,10.42
2023-02-19T01:26:14.153Z,10.56
2023-02-19T01:28:42.581Z,10.48
2023-02-19T01:31:14.610Z,10.46
2023-02-19T01:33:46.109Z,10.28
2023-02-19T01:36:13.764Z,10.30
2023-02-19T01:38:41.509Z,10.30
2023-02-19T01:41:11.579Z,10.12
2023-02-19T01:43:59.256Z,10.15
2023-02-19T01:46:29.008Z,10.15
2023-02-19T01:48:59.365Z,10.24
2023-02-19T01:51:27.717Z,10.01
2023-02-19T01:53:58.478Z,10.04
2023-02-19T01:56:27.725Z,9.94
2023-02-19T01:58:55.515Z,10.11
2023-02-19T02:01:23.095Z,10.24
2023-02-19T02:03:52.445Z,10.26
2023-02-19T02:06:23.716Z,10.13
2023-02-19T02:09:11.242Z,10.23
2023-02-19T02:11:41.474Z,10.22
2023-02-19T02:14:09.086Z,10.06
2023-02-19T02:16:45.839Z,10.16
2023-02-19T02:19:32.099Z,10.30
2023-02-19T02:22:07.219Z,10.15
2023-02-19T02:25:06.202Z,10.18
2023-02-19T02:27:46.439Z,9.95
2023-02-19T02:30:38.614Z,10.08
2023-02-19T02:33:16.001Z,10.04
2023-02-19T02:35:48.252Z,10.01
2023-02-19T02:38:18.064Z,10.11
2023-02-19T02:40:46.011Z,10.02
2023-02-19T02:43:14.780Z,10.11
2023-02-19T02:45:43.791Z,10.28
2023-02-19T02:48:18.055Z,10.25
2023-02-19T02:50:51.134Z,10.30
2023-02-19T02:53:41.451Z,10.32
2023-02-19T02:56:11.212Z,10.25
2023-02-19T02:58:39.431Z,9.97
2023-02-19T03:01:30.296Z,10.11
2023-02-19T03:04:03.979Z,10.07
2023-02-19T03:06:35.210Z,10.12
2023-02-19T03:09:10.510Z,10.14
2023-02-19T03:11:57.442Z,10.14
2023-02-19T03:14:49.986Z,10.21
2023-02-19T03:17:42.384Z,10.05
2023-02-19T03:20:14.508Z,10.26
2023-02-19T03:22:45.720Z,9.97
2023-02-19T03:25:33.392Z,10.19
2023-02-19T03:28:04.614Z,10.23
2023-02-19T03:30:35.602Z,10.01
2023-02-19T03:33:09.120Z,10.13
2023-02-19T03:35:41.444Z,10.18
2023-02-19T03:38:18.531Z,10.19
2023-02-19T03:40:53.725Z,10.17
2023-02-19T03:43:25.036Z,10.21
2023-02-19T03:46:03.728Z,10.21
2023-02-19T03:48:35.710Z,10.32
2023-02-19T03:51:13.888Z,10.20
2023-02-19T03:53:52.915Z,10.33
2023-02-19T03:56:26.927Z,10.21
2023-02-19T03:59:00.364Z,9.94
2023-02-19T04:01:33.318Z,9.94
2023-02-19T04:04:07.144Z,10.19
2023-02-19T04:06:36.231Z,10.12
2023-02-19T04:09:07.956Z,10.08
2023-02-19T04:11:37.553Z,10.20
2023-02-19T04:14:10.778Z,10.13
2023-02-19T04:16:42.337Z,9.89
2023-02-19T04:19:14.328Z,9.89
2023-02-19T04:21:43.132Z,10.01
2023-02-19T04:24:14.687Z,10.18
2023-02-19T04:26:43.454Z,10.18
2023-02-19T04:29:10.910Z,10.18
2023-02-19T04:31:39.515Z,10.07
2023-02-19T04:34:07.018Z,10.09
2023-02-19T04:36:35.895Z,10.00
2023-02-19T04:39:03.810Z,10.23
2023-02-19T04:41:31.507Z,10.33
2023-02-19T04:43:58.989Z,10.40
2023-02-19T04:46:26.481Z,10.29
2023-02-19T04:48:53.972Z,10.14
2023-02-19T04:51:21.497Z,9.90
2023-02-19T04:53:50.403Z,10.02
2023-02-19T04:56:18.775Z,10.07
2023-02-19T04:58:46.936Z,10.03
2023-02-19T05:01:15.197Z,10.09
2023-02-19T05:03:42.742Z,9.88
2023-02-19T05:06:13.025Z,10.06
2023-02-19T05:08:41.118Z,10.08
2023-02-19T05:11:12.706Z,9.76
2023-02-19T05:13:41.236Z,9.68
2023-02-19T05:16:13.179Z,9.97
2023-02-19T05:18:41.681Z,10.11
2023-02-19T05:21:10.149Z,10.13
2023-02-19T05:23:38.216Z,10.16
2023-02-19T05:26:07.208Z,10.11
2023-02-19T05:28:36.288Z,10.09
2023-02-19T05:31:06.581Z,10.23
2023-02-19T05:33:34.303Z,10.22
2023-02-19T05:36:06.622Z,10.10
2023-02-19T05:38:34.128Z,9.92
2023-02-19T05:41:09.278Z,9.99
2023-02-19T05:43:38.411Z,10.04
2023-02-19T05:46:06.587Z,10.12
2023-02-19T05:48:34.515Z,10.37
2023-02-19T05:51:04.019Z,10.29
2023-02-19T05:53:32.192Z,10.31
2023-02-19T05:56:00.240Z,10.29
2023-02-19T05:58:28.220Z,10.25
2023-02-19T06:00:57.183Z,10.26
2023-02-19T06:03:25.613Z,10.08
2023-02-19T06:05:53.103Z,10.21
2023-02-19T06:08:20.601Z,10.25
2023-02-19T06:10:48.095Z,10.46
2023-02-19T06:13:17.729Z,10.38
2023-02-19T06:15:45.417Z,10.30
2023-02-19T06:18:14.282Z,10.23
2023-02-19T06:20:41.788Z,10.02
2023-02-19T06:23:09.250Z,9.99
2023-02-19T06:25:36.727Z,10.15
2023-02-19T06:28:04.696Z,10.02
2023-02-19T06:30:32.211Z,9.99
2023-02-19T06:32:59.704Z,9.97
2023-02-19T06:35:28.600Z,9.56
2023-02-19T06:37:56.056Z,9.55
2023-02-19T06:40:23.578Z,10.05
2023-02-19T06:42:51.047Z,10.25
2023-02-19T06:45:18.674Z,10.20
2023-02-19T06:47:46.137Z,10.21
2023-02-19T06:50:13.595Z,10.07
2023-02-19T06:52:42.369Z,9.97
2023-02-19T06:55:10.090Z,10.02
2023-02-19T06:57:37.563Z,9.98
2023-02-19T07:00:05.796Z,9.91
2023-02-19T07:02:33.279Z,9.90
2023-02-19T07:05:00.747Z,9.91
2023-02-19T07:07:28.209Z,9.95
2023-02-19T07:09:57.015Z,10.00
2023-02-19T07:12:24.499Z,10.24
2023-02-19T07:14:51.967Z,10.12
2023-02-19T07:17:19.569Z,9.95
2023-02-19T07:19:47.056Z,10.08
2023-02-19T07:22:14.544Z,9.99
2023-02-19T07:24:42.006Z,10.08
2023-02-19T07:27:10.815Z,10.10
2023-02-19T07:29:38.308Z,10.01
2023-02-19T07:32:05.922Z,9.94
2023-02-19T07:34:33.413Z,10.06
2023-02-19T07:37:00.888Z,9.92
2023-02-19T07:39:28.371Z,9.86
2023-02-19T07:41:55.939Z,9.40
2023-02-19T07:44:24.736Z,9.49
2023-02-19T07:46:52.237Z,9.70
2023-02-19T07:49:20.015Z,9.75
2023-02-19T07:51:47.506Z,9.90
2023-02-19T07:54:14.974Z,10.04
2023-02-19T07:56:42.444Z,9.89
2023-02-19T07:59:10.603Z,10.10
2023-02-19T08:01:56.921Z,10.05
2023-02-19T08:04:24.438Z,10.07
2023-02-19T08:06:54.288Z,9.87
2023-02-19T08:09:21.777Z,9.82
2023-02-19T08:12:06.778Z,10.03
2023-02-19T08:14:34.275Z,10.04
2023-02-19T08:17:05.403Z,10.10
2023-02-19T08:19:32.928Z,9.77
2023-02-19T08:22:02.907Z,9.78
2023-02-19T08:24:33.850Z,9.88
2023-02-19T08:27:03.677Z,9.93
2023-02-19T08:29:31.152Z,9.99
2023-02-19T08:32:01.075Z,9.83
2023-02-19T08:34:31.979Z,9.95
2023-02-19T08:37:00.763Z,10.05
2023-02-19T08:39:28.256Z,10.24
2023-02-19T08:41:55.735Z,10.16
2023-02-19T08:44:23.200Z,10.36
2023-02-19T08:46:50.689Z,10.24
2023-02-19T08:49:18.171Z,10.40
2023-02-19T08:51:47.020Z,10.51
2023-02-19T08:54:14.483Z,10.44
2023-02-19T08:56:41.981Z,10.25
2023-02-19T08:59:09.439Z,10.16
2023-02-19T09:01:37.026Z,10.14
2023-02-19T09:04:04.645Z,10.22
2023-02-19T09:06:32.141Z,10.25
2023-02-19T09:09:00.945Z,10.22
2023-02-19T09:11:28.503Z,10.17
2023-02-19T09:13:57.417Z,10.11
2023-02-19T09:16:24.948Z,10.14
2023-02-19T09:18:52.432Z,10.17
2023-02-19T09:21:19.921Z,10.11
2023-02-19T09:23:47.398Z,10.15
2023-02-19T09:26:16.381Z,10.41
2023-02-19T09:28:43.892Z,10.41
2023-02-19T09:31:13.843Z,10.08
2023-02-19T09:33:44.244Z,9.91
2023-02-19T09:36:12.244Z,10.07
2023-02-19T09:38:40.471Z,10.28
2023-02-19T09:41:11.176Z,10.19
2023-02-19T09:43:40.208Z,10.10
2023-02-19T09:46:15.624Z,10.24
2023-02-19T09:48:43.147Z,10.45
2023-02-19T09:51:13.362Z,10.53
2023-02-19T09:53:44.714Z,10.22
2023-02-19T09:56:12.457Z,10.50
2023-02-19T09:58:48.831Z,10.67
2023-02-19T10:01:16.866Z,10.68
2023-02-19T10:03:47.020Z,10.77
2023-02-19T10:06:20.721Z,10.65
2023-02-19T10:08:50.660Z,10.56
2023-02-19T10:11:19.214Z,10.71
2023-02-19T10:13:52.701Z,10.75
2023-02-19T10:16:26.249Z,10.82
2023-02-19T10:18:54.357Z,10.74
2023-02-19T10:21:24.081Z,10.58
2023-02-19T10:23:55.479Z,10.80
2023-02-19T10:26:23.447Z,10.86
2023-02-19T10:28:54.027Z,10.93
2023-02-19T10:31:24.910Z,10.91
2023-02-19T10:33:53.978Z,10.95
2023-02-19T10:36:30.527Z,10.96
2023-02-19T10:39:01.261Z,11.13
2023-02-19T10:41:29.859Z,11.03
2023-02-19T10:44:05.082Z,10.96
2023-02-19T10:46:34.079Z,10.94
2023-02-19T10:49:04.971Z,11.02
2023-02-19T10:51:35.144Z,11.08
2023-02-19T10:54:08.043Z,10.84
2023-02-19T10:56:38.403Z,10.91
2023-02-19T10:59:26.180Z,11.12
2023-02-19T11:01:58.460Z,11.22
2023-02-19T11:04:27.252Z,11.00
2023-02-19T11:06:55.186Z,10.97
2023-02-19T11:09:27.912Z,11.16
2023-02-19T11:11:57.307Z,11.23
2023-02-19T11:14:28.289Z,11.06
2023-02-19T11:16:58.038Z,11.41
2023-02-19T11:19:30.025Z,11.31
2023-02-19T11:21:58.722Z,11.19
2023-02-19T11:24:33.748Z,11.21
2023-02-19T11:27:04.007Z,11.34
2023-02-19T11:29:34.837Z,11.44
2023-02-19T11:32:25.019Z,11.44
2023-02-19T11:34:53.256Z,11.42
2023-02-19T11:37:22.500Z,11.37
2023-02-19T11:39:52.193Z,11.53
2023-02-19T11:42:37.710Z,11.79
2023-02-19T11:45:23.387Z,11.80
2023-02-19T11:48:07.618Z,11.93
2023-02-19T11:50:49.403Z,11.81
2023-02-19T11:53:26.022Z,11.74
2023-02-19T11:56:06.748Z,11.81
2023-02-19T11:58:52.705Z,11.79
2023-02-19T12:01:28.792Z,11.96
2023-02-19T12:04:09.791Z,11.59
2023-02-19T12:06:52.038Z,11.65
2023-02-19T12:09:38.657Z,11.88
2023-02-19T12:12:20.790Z,11.69
2023-02-19T12:15:07.355Z,11.82
2023-02-19T12:18:04.006Z,11.80
2023-02-19T12:20:41.880Z,11.31
2023-02-19T12:23:39.847Z,11.31
2023-02-19T12:26:13.600Z,11.37
2023-02-19T12:28:58.482Z,11.40
2023-02-19T12:31:43.150Z,11.19
2023-02-19T12:34:56.560Z,11.37
2023-02-19T12:37:37.380Z,11.58
2023-02-19T12:40:23.884Z,11.59
2023-02-19T12:43:02.706Z,11.75
2023-02-19T12:45:35.528Z,11.78
2023-02-19T12:48:10.717Z,11.71
2023-02-19T12:50:40.326Z,11.57
2023-02-19T12:53:25.746Z,11.61
2023-02-19T12:55:54.327Z,11.73
2023-02-19T12:58:28.909Z,11.58
2023-02-19T13:00:59.632Z,11.46
2023-02-19T13:03:33.489Z,11.34
2023-02-19T13:06:09.704Z,11.24
2023-02-19T13:09:03.511Z,11.06
2023-02-19T13:11:37.572Z,10.74
2023-02-19T13:14:15.919Z,10.36
2023-02-19T13:16:47.588Z,10.61
2023-02-19T13:19:15.182Z,10.76
2023-02-19T13:22:03.162Z,10.73
2023-02-19T13:24:36.248Z,10.65
2023-02-19T13:27:29.419Z,10.95
2023-02-19T13:30:09.348Z,11.18
2023-02-19T13:32:54.354Z,11.25
2023-02-19T13:35:28.668Z,11.40
2023-02-19T13:38:01.202Z,11.47
2023-02-19T13:40:34.777Z,11.40
2023-02-19T13:43:05.320Z,11.41
2023-02-19T13:45:36.734Z,11.51
2023-02-19T13:48:15.828Z,11.48
2023-02-19T13:50:43.399Z,11.44
2023-02-19T13:53:48.424Z,11.20
2023-02-19T13:56:38.923Z,11.06
2023-02-19T13:59:34.766Z,10.95
2023-02-19T14:02:26.428Z,11.01
2023-02-19T14:04:56.875Z,10.87
2023-02-19T14:08:03.343Z,10.90
2023-02-19T14:11:03.489Z,10.85
2023-02-19T14:14:06.336Z,10.76
2023-02-19T14:17:05.499Z,10.58
2023-02-19T14:19:52.101Z,10.38
2023-02-19T14:23:11.806Z,10.53
2023-02-19T14:25:46.349Z,10.70
2023-02-19T14:28:29.860Z,10.55
2023-02-19T14:31:03.317Z,10.57
2023-02-19T14:33:33.677Z,10.66
2023-02-19T14:36:06.663Z,10.68
2023-02-19T14:38:38.224Z,10.61
2023-02-19T14:41:07.538Z,10.52
2023-02-19T14:43:37.345Z,10.29
2023-02-19T14:46:19.080Z,10.22
2023-02-19T14:48:50.016Z,10.42
2023-02-19T14:51:26.984Z,10.31
2023-02-19T14:53:56.256Z,10.44
2023-02-19T14:56:26.917Z,10.44
2023-02-19T14:59:08.879Z,10.28
2023-02-19T15:01:38.245Z,10.08
2023-02-19T15:04:06.471Z,10.10
2023-02-19T15:06:36.726Z,9.97
2023-02-19T15:09:07.161Z,10.04
2023-02-19T15:11:36.518Z,10.21
2023-02-19T15:14:06.867Z,10.21
2023-02-19T15:16:36.914Z,10.27
2023-02-19T15:19:10.013Z,10.39
2023-02-19T15:21:40.911Z,10.11
2023-02-19T15:24:08.817Z,10.23
2023-02-19T15:26:38.433Z,10.22
2023-02-19T15:29:11.704Z,10.52
2023-02-19T15:31:46.014Z,10.32
2023-02-19T15:34:19.833Z,10.58
2023-02-19T15:36:49.051Z,10.70
2023-02-19T15:39:24.942Z,10.54
2023-02-19T15:42:00.088Z,10.24
2023-02-19T15:44:35.393Z,10.37
2023-02-19T15:47:10.239Z,10.32
2023-02-19T15:49:47.393Z,10.38
2023-02-19T15:52:26.969Z,10.05
2023-02-19T15:54:59.048Z,9.90
2023-02-19T15:57:33.519Z,10.07
2023-02-19T16:00:07.091Z,10.19
2023-02-19T16:02:35.042Z,9.92
2023-02-19T16:05:12.941Z,10.20
2023-02-19T16:07:40.438Z,10.41
2023-02-19T16:10:19.694Z,10.41
2023-02-19T16:12:56.303Z,10.51
2023-02-19T16:15:23.883Z,10.48
2023-02-19T16:17:51.611Z,10.47
2023-02-19T16:20:24.852Z,10.61
2023-02-19T16:22:57.235Z,10.70
2023-02-19T16:25:29.267Z,10.63
2023-02-19T16:27:57.403Z,10.69
2023-02-19T16:30:29.499Z,10.57
2023-02-19T16:33:22.924Z,10.31
2023-02-19T16:35:52.709Z,10.28
2023-02-19T16:38:21.705Z,10.42
2023-02-19T16:41:13.626Z,10.42
2023-02-19T16:43:42.917Z,10.49
2023-02-19T16:46:12.718Z,10.39
2023-02-19T16:48:40.542Z,10.55
2023-02-19T16:51:16.441Z,10.63
2023-02-19T16:53:43.919Z,10.52
2023-02-19T16:56:16.393Z,10.20
2023-02-19T16:58:43.989Z,10.39
2023-02-19T17:01:12.008Z,10.37
2023-02-19T17:03:40.503Z,10.30
2023-02-19T17:06:09.420Z,10.23
2023-02-19T17:08:39.013Z,10.39
2023-02-19T17:11:08.123Z,10.50
2023-02-19T17:13:35.606Z,10.23
2023-02-19T17:16:03.638Z,10.04
2023-02-19T17:18:31.132Z,9.80
2023-02-19T17:21:02.982Z,9.73
2023-02-19T17:23:31.873Z,9.44
2023-02-19T17:25:59.379Z,9.41
2023-02-19T17:28:26.936Z,9.48
2023-02-19T17:30:55.012Z,9.33
2023-02-19T17:33:22.546Z,9.51
2023-02-19T17:35:50.067Z,9.41
2023-02-19T17:38:17.538Z,9.49
2023-02-19T17:40:46.389Z,9.31
2023-02-19T17:43:14.565Z,9.35
2023-02-19T17:45:42.229Z,9.58
2023-02-19T17:48:12.827Z,9.49
2023-02-19T17:50:41.175Z,9.59
2023-02-19T17:53:09.271Z,9.58
2023-02-19T17:55:36.763Z,9.74
2023-02-19T17:58:05.626Z,9.58
2023-02-19T18:00:33.185Z,9.59
2023-02-19T18:03:00.696Z,9.50
2023-02-19T18:05:28.135Z,9.42
2023-02-19T18:07:55.716Z,9.31
2023-02-19T18:10:24.559Z,9.25
2023-02-19T18:12:52.410Z,9.04
2023-02-19T18:15:23.382Z,9.09
2023-02-19T18:17:51.392Z,9.19
2023-02-19T18:20:21.348Z,9.32
2023-02-19T18:22:48.794Z,9.10
2023-02-19T18:25:16.955Z,9.35
2023-02-19T18:27:44.610Z,9.28
2023-02-19T18:30:15.433Z,9.26
2023-02-19T18:32:44.337Z,9.42
2023-02-19T18:35:12.362Z,9.25
2023-02-19T18:37:39.846Z,9.29
2023-02-19T18:40:08.545Z,9.11
2023-02-19T18:42:36.220Z,8.98
2023-02-19T18:45:04.246Z,8.71
2023-02-19T18:47:31.734Z,8.79
2023-02-19T18:50:00.558Z,8.88
2023-02-19T18:52:29.017Z,8.81
2023-02-19T18:54:57.733Z,8.51
2023-02-19T18:57:26.243Z,8.71
2023-02-19T18:59:54.227Z,8.70
2023-02-19T19:02:21.861Z,8.62
2023-02-19T19:04:51.477Z,8.85
2023-02-19T19:07:21.127Z,8.97
2023-02-19T19:09:48.937Z,9.11
2023-02-19T19:12:16.877Z,9.29
2023-02-19T19:14:45.573Z,9.19
2023-02-19T19:17:13.023Z,9.21
2023-02-19T19:19:41.194Z,9.36
2023-02-19T19:22:08.718Z,9.28
2023-02-19T19:24:37.565Z,9.43
2023-02-19T19:27:05.248Z,9.55
2023-02-19T19:29:32.862Z,9.56
2023-02-19T19:32:00.378Z,9.53
2023-02-19T19:34:27.900Z,9.58
2023-02-19T19:36:55.401Z,9.45
2023-02-19T19:39:22.894Z,9.52
2023-02-19T19:41:55.939Z,9.63
2023-02-19T19:44:23.970Z,9.51
2023-02-19T19:46:51.668Z,9.33
2023-02-19T19:49:19.825Z,9.45
2023-02-19T19:51:47.812Z,9.29
2023-02-19T19:54:15.802Z,9.35
2023-02-19T19:56:44.703Z,9.47
2023-02-19T19:59:15.206Z,9.47
2023-02-19T20:01:49.586Z,9.30
2023-02-19T20:04:17.289Z,9.11
2023-02-19T20:06:44.804Z,9.16
2023-02-19T20:09:12.862Z,8.82
2023-02-19T20:11:47.507Z,8.81
2023-02-19T20:14:17.448Z,9.01
2023-02-19T20:16:47.352Z,9.27
2023-02-19T20:19:15.551Z,9.31
2023-02-19T20:21:45.462Z,9.35
2023-02-19T20:24:15.136Z,9.34
2023-02-19T20:26:42.819Z,9.48
2023-02-19T20:29:11.010Z,9.44
2023-02-19T20:31:40.621Z,9.45
2023-02-19T20:34:08.287Z,9.35
2023-02-19T20:36:43.340Z,9.47
2023-02-19T20:39:10.883Z,9.39
2023-02-19T20:41:38.487Z,9.36
2023-02-19T20:44:06.338Z,9.55
2023-02-19T20:46:33.868Z,9.46
2023-02-19T20:49:02.744Z,9.42
2023-02-19T20:51:30.272Z,9.40
2023-02-19T20:53:58.258Z,9.46
2023-02-19T20:56:25.780Z,9.39
2023-02-19T20:58:53.259Z,9.26
2023-02-19T21:01:26.570Z,8.91
2023-02-19T21:03:54.469Z,9.07
2023-02-19T21:06:23.286Z,9.19
2023-02-19T21:08:50.769Z,9.29
2023-02-19T21:11:18.520Z,9.40
2023-02-19T21:13:46.008Z,9.47
2023-02-19T21:16:13.929Z,9.20
2023-02-19T21:18:41.600Z,9.08
2023-02-19T21:21:09.136Z,8.87
2023-02-19T21:23:37.937Z,9.01
2023-02-19T21:26:05.945Z,8.99
2023-02-19T21:28:33.400Z,8.92
2023-02-19T21:31:00.923Z,9.01
2023-02-19T21:33:28.517Z,9.16
2023-02-19T21:35:57.396Z,8.86
2023-02-19T21:38:25.168Z,9.04
2023-02-19T21:40:53.984Z,8.93
2023-02-19T21:43:21.497Z,8.83
2023-02-19T21:45:49.086Z,8.58
2023-02-19T21:48:16.608Z,8.41
2023-02-19T21:50:45.576Z,8.26
2023-02-19T21:53:13.083Z,8.23
2023-02-19T21:55:42.941Z,8.38
2023-02-19T21:58:18.836Z,8.64
2023-02-19T22:00:46.318Z,8.32
2023-02-19T22:03:16.454Z,8.63
2023-02-19T22:05:44.142Z,8.59
2023-02-19T22:08:11.766Z,8.69
2023-02-19T22:10:42.272Z,8.89
2023-02-19T22:13:09.852Z,8.86
2023-02-19T22:15:38.675Z,8.65
2023-02-19T22:18:06.738Z,8.78
2023-02-19T22:20:34.665Z,8.97
2023-02-19T22:23:02.144Z,8.84
2023-02-19T22:25:29.604Z,8.68
2023-02-19T22:27:58.920Z,8.91
2023-02-19T22:30:27.677Z,9.02
2023-02-19T22:32:56.541Z,8.91
2023-02-19T22:35:24.021Z,8.76
2023-02-19T22:37:51.594Z,8.93
2023-02-19T22:40:19.098Z,8.70
2023-02-19T22:42:46.795Z,8.86
2023-02-19T22:45:15.120Z,8.77
2023-02-19T22:47:43.660Z,8.50
2023-02-19T22:50:19.501Z,8.74
2023-02-19T22:52:46.971Z,8.75
2023-02-19T22:55:14.501Z,8.82
2023-02-19T22:57:41.988Z,8.88
2023-02-19T23:00:10.536Z,8.86
2023-02-19T23:02:38.033Z,8.77
2023-02-19T23:05:05.788Z,8.67
2023-02-19T23:07:34.608Z,8.71
2023-02-19T23:10:02.090Z,8.79
2023-02-19T23:12:29.766Z,8.51
2023-02-19T23:14:57.238Z,8.58
2023-02-19T23:17:24.706Z,8.60
2023-02-19T23:19:52.179Z,8.62
2023-02-19T23:22:19.963Z,8.39
2023-02-19T23:24:48.803Z,8.35
2023-02-19T23:27:16.413Z,8.43
2023-02-19T23:29:43.870Z,8.42
2023-02-19T23:32:11.707Z,8.42
2023-02-19T23:34:39.199Z,8.47
2023-02-19T23:37:06.671Z,8.41
2023-02-19T23:39:34.146Z,8.46
2023-02-19T23:42:02.963Z,8.33
2023-02-19T23:44:30.432Z,8.19
2023-02-19T23:46:58.012Z,7.96
2023-02-19T23:49:25.522Z,7.99
2023-02-19T23:51:53.121Z,7.72
2023-02-19T23:54:20.661Z,7.61
2023-02-19T23:56:48.114Z,7.78
2023-02-19T23:59:16.974Z,7.96
